Time;durP1;ratioP1;P1;durP2;ratioP2;P2;SDS_P1;SDS_P2;PMS_P1;PMS_P2;Temp;Humidity;BMP_temperature;BMP_pressure;BME280_temperature;BME280_humidity;BME280_pressure;Samples;Min_cycle;Max_cycle;Signal;HPM_P1;HPM_P2
2022/09/18 00:02:08;;;;;;;5.10;1.60;;;11.60;70.50;;;;;;5103303;28;20032;-60
2022/09/18 00:04:34;;;;;;;4.78;1.20;;;11.60;70.40;;;;;;5076409;28;20029;-59
2022/09/18 00:06:59;;;;;;;4.07;1.35;;;11.60;70.50;;;;;;5080189;28;20029;-60
2022/09/18 00:09:25;;;;;;;2.60;1.00;;;11.60;70.30;;;;;;5071954;28;20025;-61
2022/09/18 00:11:51;;;;;;;4.10;1.10;;;11.60;70.70;;;;;;5103324;28;20127;-58
2022/09/18 00:14:21;;;;;;;4.63;1.08;;;11.60;70.80;;;;;;5080879;28;20063;-58
2022/09/18 00:16:47;;;;;;;4.28;1.88;;;11.70;70.80;;;;;;5073961;28;20036;-60
2022/09/18 00:19:14;;;;;;;4.78;1.42;;;11.70;70.60;;;;;;5084113;28;20048;-59
2022/09/18 00:21:42;;;;;;;4.15;1.67;;;11.70;70.70;;;;;;5079227;28;20124;-59
2022/09/18 00:24:08;;;;;;;6.25;1.60;;;11.70;70.70;;;;;;5092367;28;20390;-60
2022/09/18 00:26:34;;;;;;;4.25;1.55;;;11.70;70.70;;;;;;5082762;28;20025;-58
2022/09/18 00:29:00;;;;;;;3.55;1.38;;;11.80;70.60;;;;;;5081799;28;20031;-60
2022/09/18 00:31:29;;;;;;;6.35;2.22;;;11.80;70.70;;;;;;5085926;28;20055;-59
2022/09/18 00:33:57;;;;;;;6.97;1.40;;;11.80;70.50;;;;;;5085275;28;20033;-59
2022/09/18 00:36:23;;;;;;;2.97;1.17;;;11.80;70.30;;;;;;5091960;28;20037;-59
2022/09/18 00:38:49;;;;;;;6.90;1.98;;;11.80;70.20;;;;;;5086139;28;20148;-59
2022/09/18 00:41:26;;;;;;;4.25;1.10;;;11.80;70.00;;;;;;5097087;28;20096;-60
2022/09/18 00:43:57;;;;;;;5.82;1.50;;;11.80;70.30;;;;;;5076741;28;20025;-59
2022/09/18 00:46:25;;;;;;;5.28;1.70;;;11.80;70.30;;;;;;5083451;28;20025;-59
2022/09/18 00:49:17;;;;;;;2.75;0.98;;;11.80;70.10;;;;;;5097394;28;20053;-60
2022/09/18 00:51:45;;;;;;;4.10;1.35;;;11.80;70.60;;;;;;5073065;28;20056;-59
2022/09/18 00:54:26;;;;;;;4.55;1.17;;;11.80;70.30;;;;;;5101112;28;20066;-60
2022/09/18 00:56:55;;;;;;;3.05;1.05;;;11.80;70.20;;;;;;5086024;28;20028;-61
2022/09/18 00:59:26;;;;;;;3.53;1.10;;;11.80;70.30;;;;;;5088990;28;20088;-58
2022/09/18 01:01:55;;;;;;;5.45;1.48;;;11.80;70.30;;;;;;5101284;28;20028;-60
2022/09/18 01:04:20;;;;;;;6.63;1.50;;;11.80;70.00;;;;;;5095122;28;20025;-60
2022/09/18 01:06:53;;;;;;;4.13;1.20;;;11.80;69.90;;;;;;5096893;28;20421;-60
2022/09/18 01:09:43;;;;;;;7.63;1.45;;;11.80;70.10;;;;;;5093501;28;20030;-59
2022/09/18 01:12:09;;;;;;;5.72;1.45;;;11.80;70.10;;;;;;5077807;28;20036;-59
2022/09/18 01:14:53;;;;;;;3.47;1.25;;;11.80;69.70;;;;;;5095143;28;20101;-59
2022/09/18 01:17:45;;;;;;;4.95;1.10;;;11.80;69.70;;;;;;5075503;28;20024;-60
2022/09/18 01:20:38;;;;;;;8.35;1.30;;;11.80;69.90;;;;;;5094306;28;20029;-59
2022/09/18 01:23:24;;;;;;;4.85;1.50;;;11.80;69.80;;;;;;5083884;28;20036;-59
2022/09/18 01:26:12;;;;;;;3.78;1.38;;;11.80;69.70;;;;;;5083729;28;20028;-60
2022/09/18 01:28:49;;;;;;;3.33;1.10;;;11.80;69.60;;;;;;5084936;28;20060;-59
2022/09/18 01:31:43;;;;;;;8.13;1.77;;;11.80;69.60;;;;;;5070813;28;20037;-58
2022/09/18 01:34:31;;;;;;;5.15;1.50;;;11.80;69.80;;;;;;5068092;28;20060;-59
2022/09/18 01:37:17;;;;;;;4.57;1.67;;;11.80;69.50;;;;;;5067419;28;20025;-59
2022/09/18 01:39:51;;;;;;;3.65;1.20;;;11.70;69.50;;;;;;5081907;28;20025;-58
2022/09/18 01:42:20;;;;;;;6.88;1.20;;;11.70;69.50;;;;;;5083972;28;20444;-59
2022/09/18 01:44:49;;;;;;;9.65;2.08;;;11.70;69.30;;;;;;5084262;28;20024;-59
2022/09/18 01:47:17;;;;;;;8.57;1.75;;;11.70;69.30;;;;;;5096832;28;20025;-60
2022/09/18 01:49:46;;;;;;;4.55;1.55;;;11.70;69.40;;;;;;5090193;28;20052;-59
2022/09/18 01:52:18;;;;;;;5.88;1.30;;;11.70;69.30;;;;;;5066744;28;20044;-59
2022/09/18 01:54:48;;;;;;;7.70;1.55;;;11.70;69.30;;;;;;5092161;28;20091;-59
2022/09/18 01:57:36;;;;;;;5.03;1.40;;;11.70;69.50;;;;;;5085419;28;20024;-58
2022/09/18 02:00:11;;;;;;;3.65;1.45;;;11.70;69.70;;;;;;5083890;28;20056;-60
2022/09/18 02:02:56;;;;;;;8.63;1.50;;;11.70;69.70;;;;;;5091801;28;20017;-60
2022/09/18 02:05:33;;;;;;;7.85;1.90;;;11.70;70.40;;;;;;5082933;28;20055;-59
2022/09/18 02:07:59;;;;;;;4.95;1.52;;;11.70;69.50;;;;;;5084813;28;20032;-61
2022/09/18 02:10:27;;;;;;;7.63;1.88;;;11.70;69.30;;;;;;5090111;28;20422;-59
2022/09/18 02:12:56;;;;;;;3.08;1.00;;;11.70;69.20;;;;;;5088624;28;20075;-59
2022/09/18 02:15:25;;;;;;;4.88;1.38;;;11.70;69.30;;;;;;5079036;28;20088;-60
2022/09/18 02:17:56;;;;;;;7.25;1.70;;;11.70;69.30;;;;;;5104623;28;20027;-61
2022/09/18 02:20:29;;;;;;;4.35;1.30;;;11.70;69.30;;;;;;5078540;28;20528;-60
2022/09/18 02:23:06;;;;;;;9.27;1.60;;;11.70;69.20;;;;;;5078877;28;20032;-59
2022/09/18 02:25:43;;;;;;;5.28;1.48;;;11.60;69.00;;;;;;5085249;28;20386;-60
2022/09/18 02:28:13;;;;;;;12.65;1.58;;;11.60;69.00;;;;;;5067317;28;20040;-59
2022/09/18 02:30:39;;;;;;;9.93;1.60;;;11.60;69.00;;;;;;5080019;28;20471;-60
2022/09/18 02:33:31;;;;;;;5.18;1.85;;;11.60;68.90;;;;;;5094290;28;20037;-58
2022/09/18 02:36:06;;;;;;;6.93;1.50;;;11.50;69.00;;;;;;5082440;28;20032;-58
2022/09/18 02:38:42;;;;;;;5.30;1.42;;;11.50;68.90;;;;;;5086569;28;20020;-59
2022/09/18 02:41:42;;;;;;;6.35;1.70;;;11.50;68.90;;;;;;5068529;28;20082;-58
2022/09/18 02:44:11;;;;;;;4.43;1.20;;;11.50;69.00;;;;;;5076509;28;20053;-59
2022/09/18 02:46:56;;;;;;;4.60;1.50;;;11.40;68.90;;;;;;5104072;28;20047;-60
2022/09/18 02:49:39;;;;;;;8.65;2.05;;;11.50;69.10;;;;;;5079646;28;20052;-60
2022/09/18 02:52:14;;;;;;;6.13;2.17;;;11.40;68.90;;;;;;5101066;28;20036;-59
2022/09/18 02:55:09;;;;;;;7.38;1.77;;;11.40;68.80;;;;;;5088903;28;20074;-61
2022/09/18 02:57:42;;;;;;;7.28;1.83;;;11.40;68.70;;;;;;5066102;28;20056;-60
2022/09/18 03:00:15;;;;;;;5.28;1.50;;;11.40;68.50;;;;;;5082687;28;20024;-60
2022/09/18 03:02:42;;;;;;;10.73;1.40;;;11.40;68.50;;;;;;5073133;28;20024;-60
2022/09/18 03:05:08;;;;;;;5.90;1.90;;;11.40;68.40;;;;;;5103062;28;20081;-60
2022/09/18 03:07:34;;;;;;;10.27;1.48;;;11.40;68.90;;;;;;5085413;28;20031;-59
2022/09/18 03:10:00;;;;;;;5.85;1.83;;;11.40;68.20;;;;;;5084052;28;20506;-58
2022/09/18 03:12:26;;;;;;;3.72;1.27;;;11.40;68.10;;;;;;5079577;28;20033;-58
2022/09/18 03:14:52;;;;;;;5.72;1.73;;;11.40;68.00;;;;;;5105191;28;20052;-59
2022/09/18 03:17:17;;;;;;;5.95;1.15;;;11.40;68.10;;;;;;5104231;28;20114;-58
2022/09/18 03:19:43;;;;;;;6.93;1.42;;;11.40;68.20;;;;;;5075182;28;20032;-59
2022/09/18 03:22:09;;;;;;;8.48;1.52;;;11.30;68.10;;;;;;5069621;28;20055;-59
2022/09/18 03:24:35;;;;;;;6.95;1.10;;;11.30;68.20;;;;;;5103090;28;20026;-59
2022/09/18 03:27:01;;;;;;;5.15;1.42;;;11.30;69.00;;;;;;5087789;28;20035;-60
2022/09/18 03:29:27;;;;;;;3.85;1.70;;;11.30;68.40;;;;;;5084003;28;20031;-59
2022/09/18 03:31:53;;;;;;;8.10;1.20;;;11.30;68.70;;;;;;5076909;28;20046;-58
2022/09/18 03:34:19;;;;;;;6.75;1.40;;;11.30;68.90;;;;;;5083871;28;20028;-59
2022/09/18 03:36:45;;;;;;;3.42;0.95;;;11.30;68.90;;;;;;5090489;28;20423;-59
2022/09/18 03:39:12;;;;;;;7.95;2.50;;;11.40;69.00;;;;;;5068471;28;20021;-60
2022/09/18 03:41:38;;;;;;;6.78;1.42;;;11.40;69.10;;;;;;5068531;28;20056;-60
2022/09/18 03:44:04;;;;;;;3.53;1.25;;;11.40;68.80;;;;;;5095114;28;20013;-59
2022/09/18 03:46:29;;;;;;;3.88;0.90;;;11.30;68.80;;;;;;5080388;28;20113;-59
2022/09/18 03:48:55;;;;;;;3.20;0.98;;;11.30;68.80;;;;;;5097839;28;20060;-60
2022/09/18 03:51:21;;;;;;;4.88;1.13;;;11.30;68.90;;;;;;5081263;28;20044;-59
2022/09/18 03:53:47;;;;;;;6.75;1.30;;;11.30;69.10;;;;;;5084463;28;20036;-60
2022/09/18 03:56:14;;;;;;;2.67;0.80;;;11.30;69.30;;;;;;5078313;28;20600;-58
2022/09/18 03:58:40;;;;;;;5.30;1.08;;;11.30;69.40;;;;;;5094186;28;20032;-59
2022/09/18 04:01:06;;;;;;;3.60;0.90;;;11.20;69.40;;;;;;5076504;28;20028;-60
2022/09/18 04:03:33;;;;;;;3.10;0.88;;;11.20;69.70;;;;;;5087564;28;20021;-59
2022/09/18 04:05:59;;;;;;;3.35;0.90;;;11.20;69.70;;;;;;5081792;28;20058;-59
2022/09/18 04:08:25;;;;;;;1.30;0.70;;;11.20;70.00;;;;;;5101588;28;20029;-58
2022/09/18 04:10:51;;;;;;;5.45;1.10;;;11.20;70.10;;;;;;5092839;28;20033;-58
2022/09/18 04:13:17;;;;;;;2.25;0.90;;;11.20;70.40;;;;;;5087209;28;20051;-58
2022/09/18 04:15:44;;;;;;;4.05;0.95;;;11.20;70.40;;;;;;5092741;28;20037;-58
2022/09/18 04:18:10;;;;;;;5.53;1.10;;;11.20;70.40;;;;;;5087509;28;20283;-58
2022/09/18 04:20:36;;;;;;;2.75;1.15;;;11.20;70.60;;;;;;5077646;28;20037;-59
2022/09/18 04:23:02;;;;;;;1.73;1.02;;;11.30;70.70;;;;;;5079512;28;20036;-59
2022/09/18 04:25:28;;;;;;;2.67;0.90;;;11.30;70.90;;;;;;5104778;28;20028;-60
2022/09/18 04:27:53;;;;;;;3.40;1.05;;;11.30;71.10;;;;;;5073993;28;20088;-59
2022/09/18 04:30:19;;;;;;;5.15;1.17;;;11.30;71.20;;;;;;5106495;28;20491;-59
2022/09/18 04:32:45;;;;;;;3.70;0.95;;;11.30;71.40;;;;;;5083017;28;20033;-59
2022/09/18 04:35:11;;;;;;;7.75;1.05;;;11.40;71.20;;;;;;5108163;28;20058;-59
2022/09/18 04:37:37;;;;;;;3.13;0.98;;;11.40;71.40;;;;;;5089435;28;20031;-61
2022/09/18 04:40:04;;;;;;;2.13;0.93;;;11.40;71.10;;;;;;5102146;28;20024;-60
2022/09/18 04:42:31;;;;;;;1.58;0.80;;;11.40;71.20;;;;;;5092539;28;20025;-59
2022/09/18 04:44:58;;;;;;;2.00;0.80;;;11.40;71.20;;;;;;5097409;28;20032;-58
2022/09/18 04:47:23;;;;;;;1.90;0.80;;;11.50;71.20;;;;;;5088591;28;20028;-60
2022/09/18 04:49:49;;;;;;;3.67;0.90;;;11.50;71.20;;;;;;5096672;28;20522;-60
2022/09/18 04:52:15;;;;;;;2.10;0.90;;;11.50;71.40;;;;;;5076257;28;20496;-60
2022/09/18 04:54:40;;;;;;;3.50;0.95;;;11.50;71.20;;;;;;5074137;28;20032;-58
2022/09/18 04:57:06;;;;;;;3.55;0.90;;;11.50;71.30;;;;;;5088249;28;20086;-59
2022/09/18 04:59:32;;;;;;;3.70;0.90;;;11.50;71.10;;;;;;5099919;28;20437;-58
2022/09/18 05:01:58;;;;;;;1.30;0.73;;;11.60;71.20;;;;;;5077761;28;20043;-60
2022/09/18 05:04:24;;;;;;;2.28;0.70;;;11.60;71.20;;;;;;5080680;28;20028;-59
2022/09/18 05:06:51;;;;;;;1.85;0.80;;;11.60;71.30;;;;;;5082014;28;20474;-61
2022/09/18 05:09:16;;;;;;;2.67;0.80;;;11.60;71.30;;;;;;5085867;28;20033;-59
2022/09/18 05:11:42;;;;;;;1.65;0.60;;;11.60;71.40;;;;;;5094172;28;20114;-59
2022/09/18 05:14:08;;;;;;;4.32;0.90;;;11.60;71.50;;;;;;5099484;28;20068;-60
2022/09/18 05:16:34;;;;;;;2.10;0.65;;;11.60;71.70;;;;;;5067686;28;20421;-58
2022/09/18 05:18:59;;;;;;;1.10;0.68;;;11.70;71.50;;;;;;5091231;28;20037;-59
2022/09/18 05:21:25;;;;;;;1.35;0.68;;;11.60;71.50;;;;;;5083929;28;20028;-59
2022/09/18 05:23:51;;;;;;;1.15;0.57;;;11.70;71.80;;;;;;5082392;28;20023;-58
2022/09/18 05:26:16;;;;;;;1.55;0.70;;;11.70;71.60;;;;;;5089935;28;20141;-59
2022/09/18 05:28:42;;;;;;;2.28;0.65;;;11.70;71.20;;;;;;5093201;28;20033;-59
2022/09/18 05:31:08;;;;;;;2.95;0.70;;;11.70;71.20;;;;;;5090695;28;20043;-58
2022/09/18 05:33:35;;;;;;;1.65;0.70;;;11.70;71.20;;;;;;5106661;28;20035;-59
2022/09/18 05:36:00;;;;;;;3.55;0.77;;;11.70;71.30;;;;;;5086645;28;20059;-60
2022/09/18 05:38:26;;;;;;;1.58;0.60;;;11.70;71.60;;;;;;5086782;28;20028;-58
2022/09/18 05:40:52;;;;;;;3.25;0.73;;;11.70;71.40;;;;;;5086822;28;20032;-59
2022/09/18 05:43:18;;;;;;;2.28;0.70;;;11.70;71.50;;;;;;5100886;28;20096;-59
2022/09/18 05:45:44;;;;;;;1.73;0.60;;;11.70;71.40;;;;;;5087793;28;20040;-58
2022/09/18 05:48:13;;;;;;;1.35;0.50;;;11.70;71.40;;;;;;5099837;28;20045;-59
2022/09/18 05:50:39;;;;;;;1.08;0.75;;;11.80;71.70;;;;;;5085079;28;20032;-60
2022/09/18 05:53:14;;;;;;;3.92;0.77;;;11.70;71.40;;;;;;5093629;28;20029;-59
2022/09/18 05:55:40;;;;;;;1.30;0.70;;;11.80;71.70;;;;;;5078682;28;20029;-59
2022/09/18 05:58:14;;;;;;;2.10;0.80;;;11.80;71.60;;;;;;5091800;28;20021;-59
2022/09/18 06:00:39;;;;;;;0.75;0.70;;;11.80;71.90;;;;;;5080974;28;20028;-59
2022/09/18 06:03:09;;;;;;;2.35;0.80;;;11.80;71.60;;;;;;5091371;28;20024;-59
2022/09/18 06:05:39;;;;;;;3.88;1.00;;;11.80;71.50;;;;;;5095468;28;20024;-59
2022/09/18 06:08:07;;;;;;;1.30;0.60;;;11.80;71.50;;;;;;5084250;28;20132;-58
2022/09/18 06:10:38;;;;;;;1.50;0.70;;;11.80;71.50;;;;;;5085800;28;20029;-59
2022/09/18 06:13:06;;;;;;;2.05;0.60;;;11.80;71.50;;;;;;5080811;28;20068;-59
2022/09/18 06:15:33;;;;;;;4.03;0.90;;;11.80;71.70;;;;;;5086009;28;20025;-61
2022/09/18 06:17:59;;;;;;;1.60;0.80;;;11.80;71.70;;;;;;5091917;28;20049;-59
2022/09/18 06:20:25;;;;;;;1.77;0.80;;;11.80;71.70;;;;;;5094504;28;20028;-59
2022/09/18 06:22:52;;;;;;;1.55;0.68;;;11.80;71.90;;;;;;5087455;28;20033;-61
2022/09/18 06:25:20;;;;;;;4.05;0.93;;;11.90;71.90;;;;;;5104133;28;20031;-59
2022/09/18 06:27:52;;;;;;;1.48;0.70;;;11.90;71.80;;;;;;5099762;28;20036;-59
2022/09/18 06:30:18;;;;;;;1.33;0.70;;;11.90;71.60;;;;;;5091439;28;20356;-59
2022/09/18 06:32:43;;;;;;;2.00;1.02;;;11.90;71.80;;;;;;5088891;28;20045;-58
2022/09/18 06:35:09;;;;;;;1.40;0.80;;;11.90;71.70;;;;;;5089251;28;20021;-59
2022/09/18 06:37:35;;;;;;;1.60;0.85;;;11.90;71.60;;;;;;5077811;28;20013;-58
2022/09/18 06:40:01;;;;;;;1.48;0.77;;;11.90;71.70;;;;;;5103608;28;20035;-57
2022/09/18 06:42:26;;;;;;;2.42;0.80;;;11.90;71.60;;;;;;5091466;28;20103;-60
2022/09/18 06:44:53;;;;;;;2.58;1.08;;;11.90;71.70;;;;;;5086149;28;20033;-58
2022/09/18 06:47:18;;;;;;;1.50;0.88;;;12.00;71.60;;;;;;5099916;28;20062;-59
2022/09/18 06:49:44;;;;;;;1.20;0.70;;;11.90;71.60;;;;;;5086648;28;20037;-61
2022/09/18 06:52:10;;;;;;;1.10;0.80;;;11.90;71.40;;;;;;5003390;28;20111;-58
2022/09/18 06:54:35;;;;;;;1.45;0.73;;;12.00;71.50;;;;;;5085337;28;20654;-61
2022/09/18 06:57:01;;;;;;;1.20;0.80;;;11.90;71.40;;;;;;5081618;28;20361;-60
2022/09/18 06:59:27;;;;;;;35.63;10.40;;;11.90;71.40;;;;;;5089335;28;20077;-59
2022/09/18 07:01:52;;;;;;;15.18;4.57;;;11.90;71.60;;;;;;5088849;28;20058;-60
2022/09/18 07:04:18;;;;;;;5.88;2.45;;;11.90;71.60;;;;;;5090519;28;20029;-59
2022/09/18 07:06:45;;;;;;;1.65;1.10;;;11.90;71.70;;;;;;5087150;28;20033;-59
2022/09/18 07:09:11;;;;;;;1.38;0.73;;;11.90;71.60;;;;;;5087314;28;20039;-60
2022/09/18 07:11:36;;;;;;;1.48;0.75;;;11.90;71.60;;;;;;5084831;28;20059;-58
2022/09/18 07:14:06;;;;;;;1.77;0.75;;;11.90;71.70;;;;;;5095206;28;20028;-58
2022/09/18 07:16:32;;;;;;;1.85;1.15;;;11.90;71.90;;;;;;5088209;28;20020;-58
2022/09/18 07:18:58;;;;;;;1.58;1.08;;;11.90;71.70;;;;;;5090091;28;20479;-60
2022/09/18 07:21:23;;;;;;;1.50;0.73;;;11.90;71.90;;;;;;5083109;28;20033;-59
2022/09/18 07:23:49;;;;;;;3.20;0.80;;;12.00;72.00;;;;;;5094802;28;20119;-58
2022/09/18 07:26:15;;;;;;;1.15;0.60;;;12.00;71.90;;;;;;5090457;28;20055;-59
2022/09/18 07:28:40;;;;;;;0.95;0.95;;;12.00;71.90;;;;;;5082472;28;20028;-59
2022/09/18 07:31:06;;;;;;;0.93;0.80;;;12.00;71.80;;;;;;5081006;28;20064;-59
2022/09/18 07:33:32;;;;;;;1.85;0.82;;;12.00;71.90;;;;;;5086995;28;20041;-58
2022/09/18 07:36:01;;;;;;;2.17;0.85;;;12.00;72.00;;;;;;5094457;28;20028;-59
2022/09/18 07:38:27;;;;;;;1.67;0.70;;;12.00;72.30;;;;;;5081859;28;20028;-59
2022/09/18 07:40:53;;;;;;;3.92;1.08;;;12.00;72.00;;;;;;5078614;28;20025;-58
2022/09/18 07:43:19;;;;;;;2.15;0.80;;;12.10;72.20;;;;;;5086231;28;20024;-58
2022/09/18 07:45:45;;;;;;;1.58;0.75;;;12.10;72.10;;;;;;5101877;28;20073;-58
2022/09/18 07:48:11;;;;;;;2.83;1.02;;;12.10;72.40;;;;;;5091229;28;20044;-58
2022/09/18 07:50:37;;;;;;;1.35;1.00;;;12.10;72.30;;;;;;5097364;28;20020;-57
2022/09/18 07:53:04;;;;;;;3.20;1.00;;;12.10;72.40;;;;;;5079281;28;20039;-58
2022/09/18 07:55:31;;;;;;;2.97;0.90;;;12.20;72.40;;;;;;5106615;28;20078;-57
2022/09/18 07:57:59;;;;;;;3.53;0.80;;;12.20;72.30;;;;;;5090933;28;20035;-59
2022/09/18 08:00:26;;;;;;;3.90;0.73;;;12.30;72.30;;;;;;5092670;28;20031;-58
2022/09/18 08:03:06;;;;;;;3.42;0.90;;;12.30;72.20;;;;;;5093452;28;20024;-58
2022/09/18 08:05:32;;;;;;;1.88;0.70;;;12.30;72.20;;;;;;5071557;28;20069;-60
2022/09/18 08:08:06;;;;;;;1.90;0.85;;;12.30;72.00;;;;;;5086144;28;20024;-59
2022/09/18 08:10:33;;;;;;;;;;;12.30;72.00;;;;;;5087937;28;20057;-60
2022/09/18 08:12:58;;;;;;;1.27;0.75;;;12.40;71.70;;;;;;5078310;28;19928;-60
2022/09/18 08:15:24;;;;;;;3.78;1.10;;;12.50;71.60;;;;;;5091612;28;20028;-60
2022/09/18 08:17:50;;;;;;;1.35;0.90;;;12.50;72.00;;;;;;5086052;28;20097;-59
2022/09/18 08:20:16;;;;;;;2.25;0.80;;;12.50;72.00;;;;;;5085752;28;20044;-59
2022/09/18 08:22:42;;;;;;;4.65;0.80;;;12.50;72.20;;;;;;5070582;28;20036;-58
2022/09/18 08:25:09;;;;;;;1.92;0.88;;;12.60;72.20;;;;;;5080524;28;20033;-58
2022/09/18 08:27:40;;;;;;;3.25;1.17;;;12.60;72.40;;;;;;5084765;28;20021;-58
2022/09/18 08:30:08;;;;;;;2.50;0.77;;;12.70;72.20;;;;;;5085623;28;20040;-60
2022/09/18 08:32:34;;;;;;;2.15;0.80;;;12.70;71.90;;;;;;5089349;28;20037;-59
2022/09/18 08:35:00;;;;;;;1.08;0.70;;;12.70;71.50;;;;;;5107482;28;20057;-60
2022/09/18 08:37:27;;;;;;;3.28;0.82;;;12.70;71.50;;;;;;5086799;28;20020;-59
2022/09/18 08:39:52;;;;;;;2.20;0.70;;;12.80;71.70;;;;;;5080020;28;20029;-59
2022/09/18 08:42:21;;;;;;;6.47;0.93;;;12.80;71.90;;;;;;5085733;28;20035;-59
2022/09/18 08:44:54;;;;;;;2.38;0.80;;;12.80;71.90;;;;;;5101986;28;20043;-60
2022/09/18 08:47:45;;;;;;;3.38;0.93;;;12.90;71.80;;;;;;5083959;28;20058;-60
2022/09/18 08:50:20;;;;;;;2.10;0.65;;;12.90;71.80;;;;;;5069911;28;20052;-59
2022/09/18 08:52:56;;;;;;;0.73;0.52;;;12.90;71.80;;;;;;5082357;28;20090;-61
2022/09/18 08:55:26;;;;;;;2.17;0.90;;;13.00;72.00;;;;;;5101064;28;20058;-60
2022/09/18 08:58:19;;;;;;;3.60;0.70;;;13.00;71.80;;;;;;5074011;28;20036;-61
2022/09/18 09:01:07;;;;;;;1.60;1.00;;;13.10;71.70;;;;;;5082101;28;20040;-59
2022/09/18 09:04:15;;;;;;;1.95;0.77;;;13.10;71.80;;;;;;5087915;28;20112;-58
2022/09/18 09:06:52;;;;;;;1.02;0.68;;;13.10;71.60;;;;;;5093256;28;20017;-59
2022/09/18 09:09:36;;;;;;;1.58;0.70;;;13.10;71.20;;;;;;5075155;28;20108;-58
2022/09/18 09:12:43;;;;;;;2.60;0.80;;;13.10;71.10;;;;;;5072264;28;20376;-59
2022/09/18 09:15:38;;;;;;;3.88;1.17;;;13.10;71.20;;;;;;5068516;28;20029;-58
2022/09/18 09:18:22;;;;;;;1.98;0.80;;;13.10;71.60;;;;;;5075508;28;20036;-58
2022/09/18 09:20:49;;;;;;;1.10;0.68;;;13.10;71.30;;;;;;5070159;28;20363;-59
2022/09/18 09:23:56;;;;;;;2.80;0.70;;;13.10;71.30;;;;;;5075699;28;20025;-59
2022/09/18 09:26:24;;;;;;;2.65;0.60;;;13.00;71.50;;;;;;5082061;28;20089;-59
2022/09/18 09:29:01;;;;;;;2.15;0.90;;;13.00;71.10;;;;;;5077614;28;20064;-60
2022/09/18 09:31:37;;;;;;;1.75;0.93;;;13.00;71.20;;;;;;5085145;28;20040;-60
2022/09/18 09:34:25;;;;;;;5.43;0.80;;;13.00;71.20;;;;;;5067213;28;20116;-59
2022/09/18 09:36:55;;;;;;;5.15;1.25;;;13.00;71.20;;;;;;5073960;28;20385;-59
2022/09/18 09:39:34;;;;;;;1.25;0.80;;;12.90;71.00;;;;;;5086763;28;20062;-58
2022/09/18 09:42:26;;;;;;;1.92;0.80;;;12.80;71.00;;;;;;5067671;28;20056;-59
2022/09/18 09:45:11;;;;;;;2.28;0.90;;;12.90;71.30;;;;;;5082896;28;20047;-58
2022/09/18 09:47:53;;;;;;;2.30;1.00;;;12.90;71.30;;;;;;5084000;28;20058;-60
2022/09/18 09:50:31;;;;;;;1.30;0.85;;;12.80;71.30;;;;;;5075131;28;20041;-58
2022/09/18 09:53:02;;;;;;;2.75;0.85;;;12.80;71.30;;;;;;5086830;28;20029;-59
2022/09/18 09:55:59;;;;;;;3.60;1.00;;;12.80;71.50;;;;;;5083000;28;20036;-58
2022/09/18 09:58:32;;;;;;;3.17;1.00;;;12.80;71.90;;;;;;5085390;28;20036;-61
2022/09/18 10:01:27;;;;;;;2.42;1.00;;;12.90;71.60;;;;;;5072073;28;20045;-59
2022/09/18 10:04:26;;;;;;;3.70;1.10;;;12.90;71.50;;;;;;5074824;28;20047;-59
2022/09/18 10:07:03;;;;;;;1.85;0.88;;;12.90;71.30;;;;;;5086409;28;20054;-59
2022/09/18 10:09:41;;;;;;;1.35;1.00;;;13.00;71.40;;;;;;5088659;28;20539;-60
2022/09/18 10:12:41;;;;;;;2.72;1.23;;;13.00;71.20;;;;;;5083511;28;20043;-58
2022/09/18 10:15:16;;;;;;;3.08;0.80;;;13.10;71.60;;;;;;5074477;28;20028;-59
2022/09/18 10:17:42;;;;;;;;;;;13.10;71.00;;;;;;5086898;28;20091;-58
2022/09/18 10:20:16;;;;;;;3.55;0.90;;;13.20;71.70;;;;;;5078443;28;19946;-59
2022/09/18 10:22:42;;;;;;;2.10;1.00;;;13.30;71.10;;;;;;5080672;28;20040;-58
2022/09/18 10:25:19;;;;;;;3.20;0.85;;;13.30;71.20;;;;;;5078346;28;20087;-58
2022/09/18 10:27:45;;;;;;;0.88;0.80;;;13.40;71.40;;;;;;5066561;28;20039;-60
2022/09/18 10:30:12;;;;;;;5.35;1.10;;;13.50;71.30;;;;;;5085168;28;20025;-59
2022/09/18 10:32:42;;;;;;;1.73;0.73;;;13.60;70.90;;;;;;5086078;28;20537;-60
2022/09/18 10:35:29;;;;;;;1.55;1.00;;;13.70;70.70;;;;;;5068733;28;20059;-59
2022/09/18 10:37:57;;;;;;;1.25;0.80;;;13.80;70.40;;;;;;5078927;28;20033;-59
2022/09/18 10:40:38;;;;;;;2.58;0.90;;;13.80;70.60;;;;;;5101195;28;20039;-59
2022/09/18 10:43:14;;;;;;;0.82;0.68;;;13.80;70.40;;;;;;5085687;28;20035;-59
2022/09/18 10:45:40;;;;;;;2.35;0.90;;;13.80;70.30;;;;;;5066391;28;20068;-59
2022/09/18 10:48:25;;;;;;;2.85;0.80;;;13.80;70.00;;;;;;5102633;28;20032;-59
2022/09/18 10:51:02;;;;;;;0.80;0.80;;;13.80;70.40;;;;;;5082730;28;20031;-60
2022/09/18 10:53:32;;;;;;;2.00;0.80;;;13.80;70.30;;;;;;5077285;28;20357;-58
2022/09/18 10:56:16;;;;;;;3.00;1.20;;;13.90;70.70;;;;;;5101673;28;20048;-58
2022/09/18 10:58:43;;;;;;;1.50;1.17;;;13.90;71.10;;;;;;5085426;28;20496;-61
2022/09/18 11:01:10;;;;;;;3.17;0.88;;;14.00;71.00;;;;;;5092605;28;20030;-60
2022/09/18 11:03:48;;;;;;;2.38;0.85;;;14.10;71.50;;;;;;5091062;28;20028;-58
2022/09/18 11:06:23;;;;;;;1.58;0.70;;;14.20;70.10;;;;;;5077495;28;20024;-58
2022/09/18 11:08:52;;;;;;;3.28;0.80;;;14.20;69.50;;;;;;5069630;28;20032;-59
2022/09/18 11:11:28;;;;;;;1.33;0.55;;;14.30;69.60;;;;;;5085871;28;20024;-60
2022/09/18 11:14:01;;;;;;;3.92;0.98;;;14.30;68.90;;;;;;5080700;28;20042;-59
2022/09/18 11:16:30;;;;;;;2.85;0.98;;;14.30;68.80;;;;;;5097198;28;20039;-61
2022/09/18 11:19:11;;;;;;;2.47;0.80;;;14.40;68.90;;;;;;5084997;28;20032;-59
2022/09/18 11:21:49;;;;;;;6.20;1.20;;;14.40;68.70;;;;;;5090507;28;20017;-59
2022/09/18 11:24:36;;;;;;;2.58;0.93;;;14.40;68.80;;;;;;5085259;28;20021;-59
2022/09/18 11:27:21;;;;;;;3.08;0.73;;;14.50;68.40;;;;;;5076707;28;20020;-62
2022/09/18 11:29:47;;;;;;;1.95;0.85;;;14.60;67.50;;;;;;5084281;28;20029;-61
2022/09/18 11:32:16;;;;;;;3.38;0.90;;;14.60;68.20;;;;;;5075093;28;20067;-59
2022/09/18 11:34:56;;;;;;;5.78;0.93;;;14.60;67.60;;;;;;5073586;28;20031;-59
2022/09/18 11:37:43;;;;;;;2.08;0.82;;;14.60;67.60;;;;;;5077322;28;20044;-59
2022/09/18 11:40:30;;;;;;;3.60;0.88;;;14.70;66.80;;;;;;5076522;28;20032;-59
2022/09/18 11:42:56;;;;;;;7.45;1.33;;;14.70;66.30;;;;;;5077640;28;20035;-59
2022/09/18 11:45:30;;;;;;;3.65;1.10;;;14.70;66.70;;;;;;5082896;28;20076;-59
2022/09/18 11:48:17;;;;;;;2.85;1.10;;;14.70;66.30;;;;;;5078014;28;20981;-61
2022/09/18 11:50:44;;;;;;;2.92;1.20;;;14.70;65.50;;;;;;5067587;28;20041;-60
2022/09/18 11:53:23;;;;;;;2.05;1.00;;;14.80;66.70;;;;;;5079644;28;20040;-60
2022/09/18 11:55:51;;;;;;;5.45;1.10;;;14.80;67.30;;;;;;5082244;28;20025;-60
2022/09/18 11:58:26;;;;;;;4.65;1.33;;;14.90;67.00;;;;;;5091617;28;20028;-59
2022/09/18 12:01:20;;;;;;;2.58;1.05;;;15.00;66.70;;;;;;5075091;28;20020;-60
2022/09/18 12:03:55;;;;;;;2.35;0.90;;;15.10;65.30;;;;;;5076985;28;20036;-61
2022/09/18 12:06:26;;;;;;;2.47;0.90;;;15.20;64.90;;;;;;5080436;28;20499;-59
2022/09/18 12:09:18;;;;;;;4.47;1.00;;;15.40;65.10;;;;;;5077600;28;20080;-59
2022/09/18 12:11:57;;;;;;;2.95;1.00;;;15.40;63.80;;;;;;5058944;28;20055;-60
2022/09/18 12:14:51;;;;;;;5.35;1.02;;;15.60;64.30;;;;;;5079512;28;20127;-59
2022/09/18 12:17:36;;;;;;;8.48;1.20;;;15.60;63.50;;;;;;5075803;28;20036;-60
2022/09/18 12:20:06;;;;;;;3.08;0.93;;;15.70;62.60;;;;;;5087527;28;20037;-59
2022/09/18 12:22:57;;;;;;;3.75;0.90;;;15.70;63.00;;;;;;5074681;28;20036;-59
2022/09/18 12:25:51;;;;;;;3.30;0.98;;;15.70;62.40;;;;;;5077546;28;20059;-59
2022/09/18 12:28:49;;;;;;;2.78;1.10;;;15.70;60.70;;;;;;5075900;28;20089;-59
2022/09/18 12:31:24;;;;;;;2.63;0.88;;;15.70;61.70;;;;;;5072396;28;20036;-59
2022/09/18 12:34:27;;;;;;;1.25;0.70;;;15.70;61.80;;;;;;5085284;28;20029;-59
2022/09/18 12:37:22;;;;;;;3.30;1.10;;;15.70;61.90;;;;;;5039729;28;20384;-59
2022/09/18 12:40:09;;;;;;;1.83;1.00;;;15.60;60.80;;;;;;5022721;28;20101;-59
2022/09/18 12:42:37;;;;;;;3.42;1.08;;;15.60;60.00;;;;;;5039922;28;20056;-60
2022/09/18 12:45:29;;;;;;;4.00;0.90;;;15.60;59.60;;;;;;5023621;28;20049;-60
2022/09/18 12:47:57;;;;;;;3.20;1.08;;;15.60;59.50;;;;;;5016614;28;20081;-60
2022/09/18 12:50:45;;;;;;;3.97;0.93;;;15.60;59.30;;;;;;5031304;28;20080;-60
2022/09/18 12:53:43;;;;;;;2.53;0.82;;;15.60;59.20;;;;;;5019220;28;20048;-61
2022/09/18 12:56:26;;;;;;;3.50;0.70;;;15.70;58.70;;;;;;5014416;28;20104;-60
2022/09/18 12:59:25;;;;;;;2.63;0.93;;;15.70;58.30;;;;;;5033673;28;20025;-62
2022/09/18 13:01:57;;;;;;;2.92;0.85;;;15.80;59.20;;;;;;5043304;28;20042;-60
2022/09/18 13:04:39;;;;;;;2.03;0.80;;;15.80;58.10;;;;;;5021716;28;20046;-61
2022/09/18 13:07:20;;;;;;;5.00;0.90;;;15.70;57.60;;;;;;5017261;28;20034;-59
2022/09/18 13:10:04;;;;;;;3.53;1.08;;;15.70;58.00;;;;;;5024768;28;20121;-61
2022/09/18 13:12:41;;;;;;;2.90;0.88;;;15.60;57.90;;;;;;5027679;28;20037;-60
2022/09/18 13:15:21;;;;;;;4.32;1.35;;;15.50;58.40;;;;;;5070284;28;20102;-59
2022/09/18 13:17:53;;;;;;;5.30;1.10;;;15.50;58.00;;;;;;5071640;28;20040;-59